sensor_id;sensor_type;location;lat;lon;timestamp;P1;durP1;ratioP1;P2;durP2;ratioP2
1336;SDS011;662;48.814;9.318;2022-12-22T00:01:13;2.00;;;1.80;;
1336;SDS011;662;48.814;9.318;2022-12-22T00:03:58;2.70;;;2.50;;
1336;SDS011;662;48.814;9.318;2022-12-22T00:06:42;3.70;;;2.53;;
1336;SDS011;662;48.814;9.318;2022-12-22T00:09:26;2.93;;;2.20;;
1336;SDS011;662;48.814;9.318;2022-12-22T00:12:10;2.10;;;1.90;;
1336;SDS011;662;48.814;9.318;2022-12-22T00:14:56;2.83;;;2.63;;
1336;SDS011;662;48.814;9.318;2022-12-22T00:17:41;4.37;;;3.10;;
1336;SDS011;662;48.814;9.318;2022-12-22T00:20:26;2.57;;;2.37;;
1336;SDS011;662;48.814;9.318;2022-12-22T00:23:09;3.30;;;2.20;;
1336;SDS011;662;48.814;9.318;2022-12-22T00:25:54;3.80;;;3.50;;
1336;SDS011;662;48.814;9.318;2022-12-22T00:28:39;3.90;;;2.30;;
1336;SDS011;662;48.814;9.318;2022-12-22T00:31:25;3.13;;;2.50;;
1336;SDS011;662;48.814;9.318;2022-12-22T00:34:11;2.27;;;2.17;;
1336;SDS011;662;48.814;9.318;2022-12-22T00:36:58;4.07;;;3.03;;
1336;SDS011;662;48.814;9.318;2022-12-22T00:39:42;2.33;;;2.10;;
1336;SDS011;662;48.814;9.318;2022-12-22T00:42:26;3.00;;;2.10;;
1336;SDS011;662;48.814;9.318;2022-12-22T00:45:11;2.90;;;2.53;;
1336;SDS011;662;48.814;9.318;2022-12-22T00:47:55;2.03;;;1.70;;
1336;SDS011;662;48.814;9.318;2022-12-22T00:50:39;2.00;;;1.80;;
1336;SDS011;662;48.814;9.318;2022-12-22T00:53:23;2.60;;;2.40;;
1336;SDS011;662;48.814;9.318;2022-12-22T00:56:07;2.23;;;2.03;;
1336;SDS011;662;48.814;9.318;2022-12-22T00:58:52;1.80;;;1.70;;
1336;SDS011;662;48.814;9.318;2022-12-22T01:01:39;2.50;;;2.30;;
1336;SDS011;662;48.814;9.318;2022-12-22T01:04:23;2.10;;;1.70;;
1336;SDS011;662;48.814;9.318;2022-12-22T01:07:11;1.77;;;1.60;;
1336;SDS011;662;48.814;9.318;2022-12-22T01:09:57;2.20;;;1.80;;
1336;SDS011;662;48.814;9.318;2022-12-22T01:12:42;1.80;;;1.70;;
1336;SDS011;662;48.814;9.318;2022-12-22T01:15:27;4.20;;;2.03;;
1336;SDS011;662;48.814;9.318;2022-12-22T01:18:13;3.70;;;1.80;;
1336;SDS011;662;48.814;9.318;2022-12-22T01:20:58;2.10;;;1.80;;
1336;SDS011;662;48.814;9.318;2022-12-22T01:23:43;2.10;;;1.97;;
1336;SDS011;662;48.814;9.318;2022-12-22T01:26:27;2.10;;;1.90;;
1336;SDS011;662;48.814;9.318;2022-12-22T01:29:12;2.30;;;2.10;;
1336;SDS011;662;48.814;9.318;2022-12-22T01:31:55;2.87;;;2.17;;
1336;SDS011;662;48.814;9.318;2022-12-22T01:34:39;2.10;;;2.00;;
1336;SDS011;662;48.814;9.318;2022-12-22T01:37:24;2.10;;;1.70;;
1336;SDS011;662;48.814;9.318;2022-12-22T01:40:19;2.00;;;1.70;;
1336;SDS011;662;48.814;9.318;2022-12-22T01:43:19;2.57;;;1.87;;
1336;SDS011;662;48.814;9.318;2022-12-22T01:46:20;1.40;;;1.30;;
1336;SDS011;662;48.814;9.318;2022-12-22T01:49:14;2.37;;;1.77;;
1336;SDS011;662;48.814;9.318;2022-12-22T01:52:16;1.90;;;1.80;;
1336;SDS011;662;48.814;9.318;2022-12-22T01:55:05;1.77;;;1.67;;
1336;SDS011;662;48.814;9.318;2022-12-22T01:57:52;1.53;;;1.43;;
1336;SDS011;662;48.814;9.318;2022-12-22T02:00:36;1.73;;;1.63;;
1336;SDS011;662;48.814;9.318;2022-12-22T02:03:21;1.67;;;1.30;;
1336;SDS011;662;48.814;9.318;2022-12-22T02:12:21;3.20;;;1.50;;
1336;SDS011;662;48.814;9.318;2022-12-22T02:15:18;4.50;;;1.40;;
1336;SDS011;662;48.814;9.318;2022-12-22T02:18:22;1.90;;;1.40;;
1336;SDS011;662;48.814;9.318;2022-12-22T02:21:12;1.50;;;1.40;;
1336;SDS011;662;48.814;9.318;2022-12-22T02:26:54;1.30;;;1.20;;
1336;SDS011;662;48.814;9.318;2022-12-22T02:29:47;2.17;;;1.57;;
1336;SDS011;662;48.814;9.318;2022-12-22T02:32:38;2.07;;;1.17;;
1336;SDS011;662;48.814;9.318;2022-12-22T02:35:25;1.40;;;1.30;;
1336;SDS011;662;48.814;9.318;2022-12-22T02:38:20;1.50;;;1.40;;
1336;SDS011;662;48.814;9.318;2022-12-22T02:47:50;1.50;;;1.40;;
1336;SDS011;662;48.814;9.318;2022-12-22T02:51:13;1.47;;;1.37;;
1336;SDS011;662;48.814;9.318;2022-12-22T02:54:01;2.30;;;1.60;;
1336;SDS011;662;48.814;9.318;2022-12-22T02:56:47;1.90;;;1.10;;
1336;SDS011;662;48.814;9.318;2022-12-22T02:59:31;1.30;;;1.20;;
1336;SDS011;662;48.814;9.318;2022-12-22T03:02:15;1.17;;;1.07;;
1336;SDS011;662;48.814;9.318;2022-12-22T03:04:59;1.40;;;1.30;;
1336;SDS011;662;48.814;9.318;2022-12-22T03:07:43;1.83;;;0.90;;
1336;SDS011;662;48.814;9.318;2022-12-22T03:10:27;1.43;;;1.33;;
1336;SDS011;662;48.814;9.318;2022-12-22T03:13:12;1.20;;;1.00;;
1336;SDS011;662;48.814;9.318;2022-12-22T03:15:55;1.23;;;0.90;;
1336;SDS011;662;48.814;9.318;2022-12-22T03:18:40;1.37;;;1.10;;
1336;SDS011;662;48.814;9.318;2022-12-22T03:21:24;2.13;;;1.10;;
1336;SDS011;662;48.814;9.318;2022-12-22T03:24:08;3.27;;;1.20;;
1336;SDS011;662;48.814;9.318;2022-12-22T03:26:52;1.20;;;1.17;;
1336;SDS011;662;48.814;9.318;2022-12-22T03:29:18;1.10;;;1.00;;
1336;SDS011;662;48.814;9.318;2022-12-22T03:31:44;1.20;;;0.90;;
1336;SDS011;662;48.814;9.318;2022-12-22T03:34:09;1.00;;;1.00;;
1336;SDS011;662;48.814;9.318;2022-12-22T03:36:35;1.30;;;1.20;;
1336;SDS011;662;48.814;9.318;2022-12-22T03:39:00;1.27;;;1.10;;
1336;SDS011;662;48.814;9.318;2022-12-22T03:41:26;1.13;;;0.97;;
1336;SDS011;662;48.814;9.318;2022-12-22T03:44:10;1.37;;;1.20;;
1336;SDS011;662;48.814;9.318;2022-12-22T03:46:54;1.10;;;1.00;;
1336;SDS011;662;48.814;9.318;2022-12-22T03:49:20;3.30;;;0.97;;
1336;SDS011;662;48.814;9.318;2022-12-22T03:51:48;1.87;;;1.23;;
1336;SDS011;662;48.814;9.318;2022-12-22T03:54:15;1.13;;;1.03;;
1336;SDS011;662;48.814;9.318;2022-12-22T03:56:43;1.77;;;1.27;;
1336;SDS011;662;48.814;9.318;2022-12-22T03:59:09;1.23;;;1.13;;
1336;SDS011;662;48.814;9.318;2022-12-22T04:01:36;0.87;;;0.80;;
1336;SDS011;662;48.814;9.318;2022-12-22T04:04:07;1.10;;;0.90;;
1336;SDS011;662;48.814;9.318;2022-12-22T04:06:33;1.00;;;0.90;;
1336;SDS011;662;48.814;9.318;2022-12-22T04:08:59;1.17;;;1.00;;
1336;SDS011;662;48.814;9.318;2022-12-22T04:11:24;1.00;;;1.00;;
1336;SDS011;662;48.814;9.318;2022-12-22T04:14:08;1.27;;;0.80;;
1336;SDS011;662;48.814;9.318;2022-12-22T04:16:34;1.03;;;0.93;;
1336;SDS011;662;48.814;9.318;2022-12-22T04:18:59;1.10;;;1.00;;
1336;SDS011;662;48.814;9.318;2022-12-22T04:21:25;1.60;;;1.00;;
1336;SDS011;662;48.814;9.318;2022-12-22T04:23:51;1.03;;;0.97;;
1336;SDS011;662;48.814;9.318;2022-12-22T04:26:18;0.93;;;0.93;;
1336;SDS011;662;48.814;9.318;2022-12-22T04:28:44;2.13;;;1.20;;
1336;SDS011;662;48.814;9.318;2022-12-22T04:31:10;0.80;;;0.67;;
1336;SDS011;662;48.814;9.318;2022-12-22T04:33:36;0.90;;;0.90;;
1336;SDS011;662;48.814;9.318;2022-12-22T04:36:01;1.87;;;1.10;;
1336;SDS011;662;48.814;9.318;2022-12-22T04:38:27;1.37;;;0.93;;
1336;SDS011;662;48.814;9.318;2022-12-22T04:40:53;1.23;;;0.80;;
1336;SDS011;662;48.814;9.318;2022-12-22T04:43:18;1.10;;;1.00;;
1336;SDS011;662;48.814;9.318;2022-12-22T04:45:44;1.53;;;1.00;;
1336;SDS011;662;48.814;9.318;2022-12-22T04:48:13;3.23;;;1.37;;
1336;SDS011;662;48.814;9.318;2022-12-22T04:50:38;1.00;;;0.90;;
1336;SDS011;662;48.814;9.318;2022-12-22T04:53:04;1.53;;;1.07;;
1336;SDS011;662;48.814;9.318;2022-12-22T04:55:29;2.40;;;1.10;;
1336;SDS011;662;48.814;9.318;2022-12-22T04:57:55;5.53;;;1.30;;
1336;SDS011;662;48.814;9.318;2022-12-22T05:00:20;1.13;;;1.03;;
1336;SDS011;662;48.814;9.318;2022-12-22T05:02:46;1.50;;;1.00;;
1336;SDS011;662;48.814;9.318;2022-12-22T05:05:12;2.37;;;1.30;;
1336;SDS011;662;48.814;9.318;2022-12-22T05:07:37;4.63;;;1.00;;
1336;SDS011;662;48.814;9.318;2022-12-22T05:10:03;1.30;;;1.10;;
1336;SDS011;662;48.814;9.318;2022-12-22T05:12:29;1.00;;;1.00;;
1336;SDS011;662;48.814;9.318;2022-12-22T05:15:13;3.23;;;1.13;;
1336;SDS011;662;48.814;9.318;2022-12-22T05:17:39;3.53;;;1.10;;
1336;SDS011;662;48.814;9.318;2022-12-22T05:20:05;3.13;;;1.00;;
1336;SDS011;662;48.814;9.318;2022-12-22T05:22:31;2.70;;;1.00;;
1336;SDS011;662;48.814;9.318;2022-12-22T05:24:57;1.50;;;1.10;;
1336;SDS011;662;48.814;9.318;2022-12-22T05:27:22;2.80;;;1.63;;
1336;SDS011;662;48.814;9.318;2022-12-22T05:29:48;2.40;;;1.27;;
1336;SDS011;662;48.814;9.318;2022-12-22T05:32:13;2.20;;;1.60;;
1336;SDS011;662;48.814;9.318;2022-12-22T05:34:39;3.63;;;1.90;;
1336;SDS011;662;48.814;9.318;2022-12-22T05:37:08;3.10;;;1.37;;
1336;SDS011;662;48.814;9.318;2022-12-22T05:39:33;1.77;;;1.10;;
1336;SDS011;662;48.814;9.318;2022-12-22T05:41:59;3.03;;;1.37;;
1336;SDS011;662;48.814;9.318;2022-12-22T05:44:24;2.60;;;1.40;;
1336;SDS011;662;48.814;9.318;2022-12-22T05:46:50;2.10;;;1.20;;
1336;SDS011;662;48.814;9.318;2022-12-22T05:49:16;1.73;;;1.30;;
1336;SDS011;662;48.814;9.318;2022-12-22T05:51:42;3.57;;;1.30;;
1336;SDS011;662;48.814;9.318;2022-12-22T05:54:08;3.07;;;1.37;;
1336;SDS011;662;48.814;9.318;2022-12-22T05:56:34;1.50;;;1.00;;
1336;SDS011;662;48.814;9.318;2022-12-22T05:59:00;1.40;;;1.10;;
1336;SDS011;662;48.814;9.318;2022-12-22T06:01:25;4.50;;;1.23;;
1336;SDS011;662;48.814;9.318;2022-12-22T06:03:52;2.87;;;1.30;;
1336;SDS011;662;48.814;9.318;2022-12-22T06:06:18;5.73;;;1.60;;
1336;SDS011;662;48.814;9.318;2022-12-22T06:08:44;3.37;;;1.33;;
1336;SDS011;662;48.814;9.318;2022-12-22T06:11:09;6.33;;;1.30;;
1336;SDS011;662;48.814;9.318;2022-12-22T06:13:35;4.93;;;1.77;;
1336;SDS011;662;48.814;9.318;2022-12-22T06:16:00;4.43;;;1.90;;
1336;SDS011;662;48.814;9.318;2022-12-22T06:18:26;4.03;;;1.90;;
1336;SDS011;662;48.814;9.318;2022-12-22T06:20:52;2.10;;;1.40;;
1336;SDS011;662;48.814;9.318;2022-12-22T06:23:18;5.00;;;2.33;;
1336;SDS011;662;48.814;9.318;2022-12-22T06:25:55;3.90;;;1.30;;
1336;SDS011;662;48.814;9.318;2022-12-22T06:28:21;4.83;;;1.87;;
1336;SDS011;662;48.814;9.318;2022-12-22T06:30:47;3.87;;;1.70;;
1336;SDS011;662;48.814;9.318;2022-12-22T06:33:13;4.50;;;1.70;;
1336;SDS011;662;48.814;9.318;2022-12-22T06:35:39;3.50;;;1.40;;
1336;SDS011;662;48.814;9.318;2022-12-22T06:38:05;5.10;;;1.83;;
1336;SDS011;662;48.814;9.318;2022-12-22T06:40:31;3.50;;;1.23;;
1336;SDS011;662;48.814;9.318;2022-12-22T06:42:56;5.90;;;1.70;;
1336;SDS011;662;48.814;9.318;2022-12-22T06:45:34;4.17;;;1.40;;
1336;SDS011;662;48.814;9.318;2022-12-22T06:48:01;3.13;;;1.80;;
1336;SDS011;662;48.814;9.318;2022-12-22T06:50:27;3.77;;;1.50;;
1336;SDS011;662;48.814;9.318;2022-12-22T06:52:53;5.47;;;2.17;;
1336;SDS011;662;48.814;9.318;2022-12-22T06:55:18;3.33;;;1.50;;
1336;SDS011;662;48.814;9.318;2022-12-22T06:57:44;3.93;;;1.80;;
1336;SDS011;662;48.814;9.318;2022-12-22T07:00:10;5.07;;;2.10;;
1336;SDS011;662;48.814;9.318;2022-12-22T07:02:35;4.87;;;1.90;;
1336;SDS011;662;48.814;9.318;2022-12-22T07:05:01;5.60;;;2.10;;
1336;SDS011;662;48.814;9.318;2022-12-22T07:07:27;4.57;;;1.80;;
1336;SDS011;662;48.814;9.318;2022-12-22T07:09:52;6.20;;;1.60;;
1336;SDS011;662;48.814;9.318;2022-12-22T07:12:19;5.00;;;2.07;;
1336;SDS011;662;48.814;9.318;2022-12-22T07:14:45;4.83;;;2.03;;
1336;SDS011;662;48.814;9.318;2022-12-22T07:17:11;3.00;;;2.03;;
1336;SDS011;662;48.814;9.318;2022-12-22T07:19:36;6.73;;;1.77;;
1336;SDS011;662;48.814;9.318;2022-12-22T07:22:02;6.87;;;2.20;;
1336;SDS011;662;48.814;9.318;2022-12-22T07:24:28;4.33;;;1.67;;
1336;SDS011;662;48.814;9.318;2022-12-22T07:26:54;5.80;;;1.60;;
1336;SDS011;662;48.814;9.318;2022-12-22T07:29:19;8.57;;;2.73;;
1336;SDS011;662;48.814;9.318;2022-12-22T07:31:45;5.47;;;1.90;;
1336;SDS011;662;48.814;9.318;2022-12-22T07:34:11;5.63;;;2.03;;
1336;SDS011;662;48.814;9.318;2022-12-22T07:36:37;5.17;;;1.80;;
1336;SDS011;662;48.814;9.318;2022-12-22T07:39:03;6.80;;;1.50;;
1336;SDS011;662;48.814;9.318;2022-12-22T07:41:28;7.97;;;2.03;;
1336;SDS011;662;48.814;9.318;2022-12-22T07:44:12;6.10;;;1.80;;
1336;SDS011;662;48.814;9.318;2022-12-22T07:46:38;5.33;;;1.73;;
1336;SDS011;662;48.814;9.318;2022-12-22T07:49:05;4.60;;;2.50;;
1336;SDS011;662;48.814;9.318;2022-12-22T07:51:49;4.27;;;2.00;;
1336;SDS011;662;48.814;9.318;2022-12-22T07:54:16;4.63;;;1.70;;
1336;SDS011;662;48.814;9.318;2022-12-22T07:56:42;6.87;;;1.80;;
1336;SDS011;662;48.814;9.318;2022-12-22T07:59:09;7.77;;;1.73;;
1336;SDS011;662;48.814;9.318;2022-12-22T08:01:35;6.40;;;1.87;;
1336;SDS011;662;48.814;9.318;2022-12-22T08:04:01;5.87;;;1.70;;
1336;SDS011;662;48.814;9.318;2022-12-22T08:06:27;4.50;;;1.80;;
1336;SDS011;662;48.814;9.318;2022-12-22T08:08:52;7.63;;;2.17;;
1336;SDS011;662;48.814;9.318;2022-12-22T08:11:18;6.77;;;2.03;;
1336;SDS011;662;48.814;9.318;2022-12-22T08:13:44;5.57;;;1.40;;
1336;SDS011;662;48.814;9.318;2022-12-22T08:16:11;6.57;;;1.73;;
1336;SDS011;662;48.814;9.318;2022-12-22T08:18:38;7.07;;;1.90;;
1336;SDS011;662;48.814;9.318;2022-12-22T08:21:04;8.63;;;1.73;;
1336;SDS011;662;48.814;9.318;2022-12-22T08:23:31;4.30;;;1.90;;
1336;SDS011;662;48.814;9.318;2022-12-22T08:26:02;5.93;;;2.10;;
1336;SDS011;662;48.814;9.318;2022-12-22T08:28:47;7.93;;;1.90;;
1336;SDS011;662;48.814;9.318;2022-12-22T08:31:20;5.17;;;1.60;;
1336;SDS011;662;48.814;9.318;2022-12-22T08:33:48;3.53;;;1.30;;
1336;SDS011;662;48.814;9.318;2022-12-22T08:36:14;6.10;;;1.97;;
1336;SDS011;662;48.814;9.318;2022-12-22T08:38:40;7.40;;;2.00;;
1336;SDS011;662;48.814;9.318;2022-12-22T08:41:11;3.50;;;1.70;;
1336;SDS011;662;48.814;9.318;2022-12-22T08:43:38;6.17;;;1.77;;
1336;SDS011;662;48.814;9.318;2022-12-22T08:46:04;7.83;;;2.27;;
1336;SDS011;662;48.814;9.318;2022-12-22T08:48:29;5.10;;;2.13;;
1336;SDS011;662;48.814;9.318;2022-12-22T08:50:56;4.30;;;1.53;;
1336;SDS011;662;48.814;9.318;2022-12-22T08:53:22;5.93;;;2.20;;
1336;SDS011;662;48.814;9.318;2022-12-22T08:55:54;7.70;;;1.67;;
1336;SDS011;662;48.814;9.318;2022-12-22T08:58:20;5.17;;;1.63;;
1336;SDS011;662;48.814;9.318;2022-12-22T09:00:46;8.03;;;2.27;;
1336;SDS011;662;48.814;9.318;2022-12-22T09:03:12;4.00;;;2.13;;
1336;SDS011;662;48.814;9.318;2022-12-22T09:05:38;5.13;;;1.83;;
1336;SDS011;662;48.814;9.318;2022-12-22T09:08:05;5.03;;;2.63;;
1336;SDS011;662;48.814;9.318;2022-12-22T09:10:31;9.93;;;2.63;;
1336;SDS011;662;48.814;9.318;2022-12-22T09:12:57;5.20;;;2.90;;
1336;SDS011;662;48.814;9.318;2022-12-22T09:15:22;4.83;;;1.80;;
1336;SDS011;662;48.814;9.318;2022-12-22T09:17:48;5.10;;;2.10;;
1336;SDS011;662;48.814;9.318;2022-12-22T09:20:14;4.93;;;1.90;;
1336;SDS011;662;48.814;9.318;2022-12-22T09:22:40;5.10;;;2.13;;
1336;SDS011;662;48.814;9.318;2022-12-22T09:25:06;5.53;;;1.63;;
1336;SDS011;662;48.814;9.318;2022-12-22T09:27:32;4.40;;;2.00;;
1336;SDS011;662;48.814;9.318;2022-12-22T09:29:57;9.00;;;2.03;;
1336;SDS011;662;48.814;9.318;2022-12-22T09:32:23;6.00;;;2.10;;
1336;SDS011;662;48.814;9.318;2022-12-22T09:34:49;6.50;;;2.30;;
1336;SDS011;662;48.814;9.318;2022-12-22T09:37:15;9.17;;;2.37;;
1336;SDS011;662;48.814;9.318;2022-12-22T09:39:41;4.83;;;1.73;;
1336;SDS011;662;48.814;9.318;2022-12-22T09:42:11;5.10;;;1.63;;
1336;SDS011;662;48.814;9.318;2022-12-22T09:44:42;4.83;;;1.40;;
1336;SDS011;662;48.814;9.318;2022-12-22T09:49:45;5.67;;;1.60;;
1336;SDS011;662;48.814;9.318;2022-12-22T09:52:20;8.70;;;1.60;;
1336;SDS011;662;48.814;9.318;2022-12-22T09:54:48;5.00;;;1.90;;
1336;SDS011;662;48.814;9.318;2022-12-22T09:57:14;4.23;;;1.43;;
1336;SDS011;662;48.814;9.318;2022-12-22T09:59:40;5.90;;;2.20;;
1336;SDS011;662;48.814;9.318;2022-12-22T10:07:38;5.43;;;1.60;;
1336;SDS011;662;48.814;9.318;2022-12-22T10:10:27;6.00;;;2.07;;
1336;SDS011;662;48.814;9.318;2022-12-22T10:12:59;5.10;;;1.50;;
1336;SDS011;662;48.814;9.318;2022-12-22T10:15:26;9.03;;;1.80;;
1336;SDS011;662;48.814;9.318;2022-12-22T10:20:39;6.03;;;1.80;;
1336;SDS011;662;48.814;9.318;2022-12-22T10:25:57;3.67;;;2.07;;
1336;SDS011;662;48.814;9.318;2022-12-22T10:31:23;6.80;;;1.90;;
1336;SDS011;662;48.814;9.318;2022-12-22T10:33:51;2.70;;;1.20;;
1336;SDS011;662;48.814;9.318;2022-12-22T10:36:19;2.70;;;1.40;;
1336;SDS011;662;48.814;9.318;2022-12-22T10:39:00;3.33;;;1.50;;
1336;SDS011;662;48.814;9.318;2022-12-22T10:41:30;4.77;;;1.50;;
1336;SDS011;662;48.814;9.318;2022-12-22T10:44:00;5.40;;;1.70;;
1336;SDS011;662;48.814;9.318;2022-12-22T10:46:31;6.83;;;1.60;;
1336;SDS011;662;48.814;9.318;2022-12-22T10:49:08;4.67;;;1.53;;
1336;SDS011;662;48.814;9.318;2022-12-22T10:52:23;2.43;;;1.20;;
1336;SDS011;662;48.814;9.318;2022-12-22T10:54:43;4.23;;;1.20;;
1336;SDS011;662;48.814;9.318;2022-12-22T10:59:47;1.53;;;1.10;;
1336;SDS011;662;48.814;9.318;2022-12-22T11:04:52;4.37;;;1.50;;
1336;SDS011;662;48.814;9.318;2022-12-22T11:07:24;3.80;;;1.37;;
1336;SDS011;662;48.814;9.318;2022-12-22T11:09:50;2.27;;;1.10;;
1336;SDS011;662;48.814;9.318;2022-12-22T11:12:34;4.30;;;1.43;;
1336;SDS011;662;48.814;9.318;2022-12-22T11:15:28;2.10;;;1.43;;
1336;SDS011;662;48.814;9.318;2022-12-22T11:20:56;5.03;;;1.50;;
1336;SDS011;662;48.814;9.318;2022-12-22T11:23:35;5.37;;;1.40;;
1336;SDS011;662;48.814;9.318;2022-12-22T11:26:10;2.20;;;1.37;;
1336;SDS011;662;48.814;9.318;2022-12-22T11:29:11;3.20;;;1.30;;
1336;SDS011;662;48.814;9.318;2022-12-22T11:34:31;2.27;;;1.17;;
1336;SDS011;662;48.814;9.318;2022-12-22T11:40:31;1.40;;;0.97;;
1336;SDS011;662;48.814;9.318;2022-12-22T11:48:43;3.80;;;0.97;;
1336;SDS011;662;48.814;9.318;2022-12-22T11:51:34;6.70;;;1.33;;
1336;SDS011;662;48.814;9.318;2022-12-22T11:54:19;1.97;;;1.30;;
1336;SDS011;662;48.814;9.318;2022-12-22T12:00:14;2.27;;;1.20;;
1336;SDS011;662;48.814;9.318;2022-12-22T12:13:53;3.73;;;1.47;;
1336;SDS011;662;48.814;9.318;2022-12-22T12:22:03;3.33;;;1.10;;
1336;SDS011;662;48.814;9.318;2022-12-22T12:24:41;1.40;;;0.90;;
1336;SDS011;662;48.814;9.318;2022-12-22T12:30:13;3.23;;;0.80;;
1336;SDS011;662;48.814;9.318;2022-12-22T12:32:43;2.87;;;1.17;;
1336;SDS011;662;48.814;9.318;2022-12-22T12:35:21;3.20;;;0.93;;
1336;SDS011;662;48.814;9.318;2022-12-22T12:37:54;1.63;;;0.77;;
1336;SDS011;662;48.814;9.318;2022-12-22T12:43:02;3.07;;;0.90;;
1336;SDS011;662;48.814;9.318;2022-12-22T12:50:48;2.43;;;1.00;;
1336;SDS011;662;48.814;9.318;2022-12-22T12:53:20;1.77;;;1.00;;
1336;SDS011;662;48.814;9.318;2022-12-22T13:05:58;2.20;;;1.13;;
1336;SDS011;662;48.814;9.318;2022-12-22T13:08:25;3.07;;;1.20;;
1336;SDS011;662;48.814;9.318;2022-12-22T13:26:40;4.80;;;1.10;;
1336;SDS011;662;48.814;9.318;2022-12-22T13:29:08;1.10;;;0.67;;
1336;SDS011;662;48.814;9.318;2022-12-22T13:31:58;1.20;;;0.83;;
1336;SDS011;662;48.814;9.318;2022-12-22T13:37:24;3.27;;;0.93;;
1336;SDS011;662;48.814;9.318;2022-12-22T13:40:04;1.80;;;1.27;;
1336;SDS011;662;48.814;9.318;2022-12-22T13:42:33;1.23;;;0.80;;
1336;SDS011;662;48.814;9.318;2022-12-22T13:45:01;3.10;;;1.10;;
1336;SDS011;662;48.814;9.318;2022-12-22T13:47:26;1.67;;;0.90;;
1336;SDS011;662;48.814;9.318;2022-12-22T13:49:52;2.27;;;0.80;;
1336;SDS011;662;48.814;9.318;2022-12-22T13:52:18;1.40;;;0.73;;
1336;SDS011;662;48.814;9.318;2022-12-22T13:54:45;3.40;;;1.00;;
1336;SDS011;662;48.814;9.318;2022-12-22T13:57:15;3.50;;;0.90;;
1336;SDS011;662;48.814;9.318;2022-12-22T13:59:44;1.50;;;1.03;;
1336;SDS011;662;48.814;9.318;2022-12-22T14:02:14;1.73;;;0.93;;
1336;SDS011;662;48.814;9.318;2022-12-22T14:04:43;1.87;;;0.90;;
1336;SDS011;662;48.814;9.318;2022-12-22T14:07:26;3.17;;;1.37;;
1336;SDS011;662;48.814;9.318;2022-12-22T14:09:53;1.60;;;0.90;;
1336;SDS011;662;48.814;9.318;2022-12-22T14:12:24;2.10;;;0.87;;
1336;SDS011;662;48.814;9.318;2022-12-22T14:14:52;1.50;;;0.73;;
1336;SDS011;662;48.814;9.318;2022-12-22T14:17:29;1.20;;;0.90;;
1336;SDS011;662;48.814;9.318;2022-12-22T14:19:59;4.80;;;1.13;;
1336;SDS011;662;48.814;9.318;2022-12-22T14:22:35;1.13;;;0.90;;
1336;SDS011;662;48.814;9.318;2022-12-22T14:25:06;1.40;;;0.97;;
1336;SDS011;662;48.814;9.318;2022-12-22T14:28:00;2.80;;;1.10;;
1336;SDS011;662;48.814;9.318;2022-12-22T14:30:30;3.07;;;1.17;;
1336;SDS011;662;48.814;9.318;2022-12-22T14:33:48;4.00;;;1.30;;
1336;SDS011;662;48.814;9.318;2022-12-22T14:38:41;2.93;;;1.27;;
1336;SDS011;662;48.814;9.318;2022-12-22T14:41:10;3.03;;;1.00;;
1336;SDS011;662;48.814;9.318;2022-12-22T14:44:12;1.30;;;1.20;;
1336;SDS011;662;48.814;9.318;2022-12-22T14:46:40;5.23;;;1.77;;
1336;SDS011;662;48.814;9.318;2022-12-22T14:49:13;1.70;;;1.10;;
1336;SDS011;662;48.814;9.318;2022-12-22T14:51:41;3.47;;;1.30;;
1336;SDS011;662;48.814;9.318;2022-12-22T14:54:18;8.30;;;1.37;;
1336;SDS011;662;48.814;9.318;2022-12-22T14:56:47;3.77;;;1.73;;
1336;SDS011;662;48.814;9.318;2022-12-22T14:59:21;5.90;;;1.53;;
1336;SDS011;662;48.814;9.318;2022-12-22T15:01:55;3.80;;;1.70;;
1336;SDS011;662;48.814;9.318;2022-12-22T15:04:25;6.90;;;2.07;;
1336;SDS011;662;48.814;9.318;2022-12-22T15:06:51;3.47;;;1.67;;
1336;SDS011;662;48.814;9.318;2022-12-22T15:09:28;4.30;;;1.67;;
1336;SDS011;662;48.814;9.318;2022-12-22T15:11:56;5.63;;;1.83;;
1336;SDS011;662;48.814;9.318;2022-12-22T15:14:29;3.60;;;1.80;;
1336;SDS011;662;48.814;9.318;2022-12-22T15:16:58;6.03;;;2.10;;
1336;SDS011;662;48.814;9.318;2022-12-22T15:19:27;7.00;;;2.20;;
1336;SDS011;662;48.814;9.318;2022-12-22T15:21:55;5.73;;;1.70;;
1336;SDS011;662;48.814;9.318;2022-12-22T15:24:20;4.27;;;1.70;;
1336;SDS011;662;48.814;9.318;2022-12-22T15:26:46;5.03;;;1.70;;
1336;SDS011;662;48.814;9.318;2022-12-22T15:29:12;5.70;;;2.20;;
1336;SDS011;662;48.814;9.318;2022-12-22T15:31:38;6.47;;;2.50;;
1336;SDS011;662;48.814;9.318;2022-12-22T15:34:20;9.00;;;2.27;;
1336;SDS011;662;48.814;9.318;2022-12-22T15:36:48;6.13;;;2.40;;
1336;SDS011;662;48.814;9.318;2022-12-22T15:39:14;7.00;;;2.00;;
1336;SDS011;662;48.814;9.318;2022-12-22T15:41:41;4.97;;;1.70;;
1336;SDS011;662;48.814;9.318;2022-12-22T15:44:07;5.60;;;1.50;;
1336;SDS011;662;48.814;9.318;2022-12-22T15:46:33;4.23;;;1.80;;
1336;SDS011;662;48.814;9.318;2022-12-22T15:49:00;4.70;;;1.60;;
1336;SDS011;662;48.814;9.318;2022-12-22T15:51:26;4.17;;;1.80;;
1336;SDS011;662;48.814;9.318;2022-12-22T15:53:53;5.17;;;1.50;;
1336;SDS011;662;48.814;9.318;2022-12-22T15:56:22;3.83;;;1.60;;
1336;SDS011;662;48.814;9.318;2022-12-22T15:58:49;3.23;;;1.53;;
1336;SDS011;662;48.814;9.318;2022-12-22T16:01:16;2.40;;;1.57;;
1336;SDS011;662;48.814;9.318;2022-12-22T16:03:41;6.20;;;1.80;;
1336;SDS011;662;48.814;9.318;2022-12-22T16:06:13;5.80;;;1.40;;
1336;SDS011;662;48.814;9.318;2022-12-22T16:08:41;4.60;;;1.97;;
1336;SDS011;662;48.814;9.318;2022-12-22T16:11:09;5.17;;;1.90;;
1336;SDS011;662;48.814;9.318;2022-12-22T16:13:35;4.87;;;1.90;;
1336;SDS011;662;48.814;9.318;2022-12-22T16:16:02;5.03;;;1.97;;
1336;SDS011;662;48.814;9.318;2022-12-22T16:18:29;5.50;;;1.83;;
1336;SDS011;662;48.814;9.318;2022-12-22T16:20:54;5.63;;;1.73;;
1336;SDS011;662;48.814;9.318;2022-12-22T16:23:23;8.97;;;1.80;;
1336;SDS011;662;48.814;9.318;2022-12-22T16:25:50;7.57;;;2.03;;
1336;SDS011;662;48.814;9.318;2022-12-22T16:28:19;5.30;;;2.07;;
1336;SDS011;662;48.814;9.318;2022-12-22T16:30:46;6.83;;;2.13;;
1336;SDS011;662;48.814;9.318;2022-12-22T16:33:13;5.70;;;2.00;;
1336;SDS011;662;48.814;9.318;2022-12-22T16:35:39;4.53;;;2.03;;
1336;SDS011;662;48.814;9.318;2022-12-22T16:38:05;5.97;;;1.73;;
1336;SDS011;662;48.814;9.318;2022-12-22T16:40:31;5.87;;;2.43;;
1336;SDS011;662;48.814;9.318;2022-12-22T16:43:06;4.53;;;1.60;;
1336;SDS011;662;48.814;9.318;2022-12-22T16:45:35;8.67;;;2.07;;
1336;SDS011;662;48.814;9.318;2022-12-22T16:48:04;9.47;;;3.13;;
1336;SDS011;662;48.814;9.318;2022-12-22T16:50:33;6.73;;;1.90;;
1336;SDS011;662;48.814;9.318;2022-12-22T16:53:00;4.80;;;2.10;;
1336;SDS011;662;48.814;9.318;2022-12-22T16:55:27;5.37;;;1.90;;
1336;SDS011;662;48.814;9.318;2022-12-22T16:57:53;9.47;;;2.37;;
1336;SDS011;662;48.814;9.318;2022-12-22T17:00:20;6.43;;;2.57;;
1336;SDS011;662;48.814;9.318;2022-12-22T17:02:54;10.37;;;3.17;;
1336;SDS011;662;48.814;9.318;2022-12-22T17:07:53;9.93;;;3.67;;
1336;SDS011;662;48.814;9.318;2022-12-22T17:10:20;6.73;;;2.50;;
1336;SDS011;662;48.814;9.318;2022-12-22T17:12:46;9.03;;;2.97;;
1336;SDS011;662;48.814;9.318;2022-12-22T17:15:17;8.63;;;3.37;;
1336;SDS011;662;48.814;9.318;2022-12-22T17:17:44;6.20;;;2.30;;
1336;SDS011;662;48.814;9.318;2022-12-22T17:20:16;9.87;;;3.00;;
1336;SDS011;662;48.814;9.318;2022-12-22T17:22:45;9.77;;;2.60;;
1336;SDS011;662;48.814;9.318;2022-12-22T17:25:26;9.20;;;2.70;;
1336;SDS011;662;48.814;9.318;2022-12-22T17:27:54;10.27;;;2.70;;
1336;SDS011;662;48.814;9.318;2022-12-22T17:30:22;8.57;;;2.90;;
1336;SDS011;662;48.814;9.318;2022-12-22T17:32:49;7.23;;;2.80;;
1336;SDS011;662;48.814;9.318;2022-12-22T17:35:21;10.20;;;3.63;;
1336;SDS011;662;48.814;9.318;2022-12-22T17:37:49;10.20;;;2.40;;
1336;SDS011;662;48.814;9.318;2022-12-22T17:40:25;10.20;;;3.20;;
1336;SDS011;662;48.814;9.318;2022-12-22T17:42:54;8.40;;;3.37;;
1336;SDS011;662;48.814;9.318;2022-12-22T17:45:22;12.70;;;3.40;;
1336;SDS011;662;48.814;9.318;2022-12-22T17:47:48;9.13;;;3.23;;
1336;SDS011;662;48.814;9.318;2022-12-22T17:50:14;9.80;;;2.80;;
1336;SDS011;662;48.814;9.318;2022-12-22T17:52:42;9.97;;;3.07;;
1336;SDS011;662;48.814;9.318;2022-12-22T17:57:46;10.10;;;3.03;;
1336;SDS011;662;48.814;9.318;2022-12-22T18:00:19;9.83;;;3.27;;
1336;SDS011;662;48.814;9.318;2022-12-22T18:02:47;13.03;;;3.97;;